Etusivu
METAR-TAF:

METAR-TAF

Lentoasemat :

Ålesund, Norja

Leveyspiiri: 62-34N, Pituuspiiri: 006-07E, korkeus merenpinnasta: 2 m

Tämänhetkinen sää

Tämä raportti tehtiin 14 minuuttia sitten, kello 10.50 UTC
Tuuli 21 kn lounaasta
Lämpötila 10°C
Kosteus 53%
Ilmanpaine 1022 hPa
Näkyvyys 10 km tai enemmän
Muutamia pilviä 4500 ft:n korkeudessa

METAR: ENAL 071050Z 22021KT 9999 FEW045 10/01 Q1022

Aika: 13:04 (11:04 UTC)

Sääennuste

Tämä raportti tehtiin 3 tuntia ja 4 minuuttia sitten, kello 08.00 UTC
Ennuste voimassa 07. päivästä klo 09 UTC - 07. päivään klo 18 UTC
Tuuli 15 kn lounaasta
Näkyvyys 10 km tai enemmän
Muutamia pilviä 4000 ft:n korkeudessa
Ajoittain
07. päivästä klo 09 UTC - 07. päivään klo 18 UTC
Tuuli 20 kn etelästä/lounaasta puuskistuen 30 kn:hen

TAF: ENAL 070800Z 0709/0718 22015KT 9999 FEW040 TEMPO 0709/0718 20020G30KT

Säähavainnot ja -ennusteet yli 4000 lentoasemalta (METAR- ja TAF-raportit).

Käytössä olevat sääasemat on merkitty karttaan keltaisilla ja punaisilla pisteillä.

Aseta hiiri pisteen päälle nähdäksesi sääaseman nimen.

Klikkaa sitten nähdäksesi säähavainnot ja -ennusteet.

Kartan vaihtaminen: klikkaa mustalla rastilla varustettuja vihreitä pisteitä, niin voit zoomata sisään; viivalla varustettua vihreää pistettä, niin voit zoomata ulos tai vihreitä nuolia, niin pääset viereisille kartoille.


METAR-TAF: